createdAt,value
2019-03-12T00:01:14.199Z,50.70
2019-03-12T00:03:44.913Z,50.50
2019-03-12T00:06:15.617Z,50.50
2019-03-12T00:08:46.413Z,50.40
2019-03-12T00:11:16.780Z,50.40
2019-03-12T00:13:47.187Z,50.40
2019-03-12T00:16:18.206Z,50.40
2019-03-12T00:18:48.701Z,50.40
2019-03-12T00:21:19.515Z,50.30
2019-03-12T00:23:49.872Z,50.20
2019-03-12T00:26:20.556Z,50.20
2019-03-12T00:28:51.047Z,50.30
2019-03-12T00:31:24.777Z,50.30
2019-03-12T00:33:55.159Z,50.10
2019-03-12T00:36:25.550Z,50.10
2019-03-12T00:38:56.010Z,50.10
2019-03-12T00:41:26.366Z,50.10
2019-03-12T00:43:56.810Z,50.30
2019-03-12T00:46:27.362Z,50.30
2019-03-12T00:48:58.110Z,50.30
2019-03-12T00:51:28.872Z,50.30
2019-03-12T00:53:59.555Z,50.10
2019-03-12T00:56:33.171Z,50.10
2019-03-12T00:59:03.762Z,50.10
2019-03-12T01:01:34.462Z,50.20
2019-03-12T01:04:05.080Z,50.20
2019-03-12T01:06:35.872Z,50.20
2019-03-12T01:09:08.734Z,50.20
2019-03-12T01:11:39.113Z,50.20
2019-03-12T01:14:09.591Z,50.30
2019-03-12T01:16:40.041Z,50.40
2019-03-12T01:19:10.729Z,50.30
2019-03-12T01:21:41.211Z,50.50
2019-03-12T01:24:11.886Z,50.40
2019-03-12T01:26:42.669Z,50.50
2019-03-12T01:29:13.373Z,50.60
2019-03-12T01:31:44.159Z,50.50
2019-03-12T01:34:14.558Z,50.50
2019-03-12T01:36:44.925Z,50.40
2019-03-12T01:39:15.724Z,50.50
2019-03-12T01:41:46.281Z,50.50
2019-03-12T01:44:17.105Z,50.50
2019-03-12T01:46:47.941Z,50.50
2019-03-12T01:49:18.400Z,50.50
2019-03-12T01:51:49.064Z,50.50
2019-03-12T01:54:19.413Z,50.50
2019-03-12T01:56:50.245Z,50.60
2019-03-12T01:59:20.721Z,50.50
2019-03-12T02:01:51.171Z,50.50
2019-03-12T02:04:21.706Z,50.40
2019-03-12T02:06:52.424Z,50.50
2019-03-12T02:09:23.186Z,50.40
2019-03-12T02:11:53.632Z,50.40
2019-03-12T02:14:28.769Z,50.50
2019-03-12T02:16:59.493Z,50.50
2019-03-12T02:19:30.283Z,50.40
2019-03-12T02:22:00.768Z,50.40
2019-03-12T02:24:31.590Z,50.50
2019-03-12T02:27:02.615Z,50.50
2019-03-12T02:29:33.537Z,50.50
2019-03-12T02:32:04.352Z,50.60
2019-03-12T02:34:35.189Z,50.50
2019-03-12T02:37:06.049Z,50.40
2019-03-12T02:39:38.470Z,50.50
2019-03-12T02:42:12.444Z,50.50
2019-03-12T02:44:41.413Z,50.40
2019-03-12T02:47:12.447Z,50.40
2019-03-12T02:49:42.860Z,50.50
2019-03-12T02:52:13.286Z,50.40
2019-03-12T02:54:43.887Z,50.40
2019-03-12T02:57:15.111Z,50.40
2019-03-12T02:59:45.565Z,49.20
2019-03-12T03:02:16.346Z,48.20
2019-03-12T03:04:46.710Z,47.90
2019-03-12T03:07:18.782Z,47.90
2019-03-12T03:09:49.941Z,47.90
2019-03-12T03:12:20.382Z,48.00
2019-03-12T03:14:51.669Z,48.00
2019-03-12T03:17:22.547Z,48.10
2019-03-12T03:19:53.621Z,48.10
2019-03-12T03:22:24.465Z,48.90
2019-03-12T03:24:54.942Z,48.30
2019-03-12T03:27:29.104Z,48.30
2019-03-12T03:29:57.357Z,48.40
2019-03-12T03:32:28.038Z,48.30
2019-03-12T03:34:58.515Z,48.40
2019-03-12T03:37:29.049Z,48.40
2019-03-12T03:39:59.775Z,48.50
2019-03-12T03:42:30.449Z,48.60
2019-03-12T03:45:00.849Z,48.50
2019-03-12T03:47:31.414Z,48.60
2019-03-12T03:50:01.901Z,48.60
2019-03-12T03:52:32.445Z,48.70
2019-03-12T03:55:03.260Z,48.60
2019-03-12T03:57:34.217Z,48.70
2019-03-12T04:00:06.296Z,48.70
2019-03-12T04:02:37.060Z,48.80
2019-03-12T04:05:07.991Z,48.70
2019-03-12T04:07:38.795Z,48.70
2019-03-12T04:10:11.129Z,49.50
2019-03-12T04:12:41.536Z,48.80
2019-03-12T04:15:13.913Z,48.80
2019-03-12T04:17:44.608Z,48.90
2019-03-12T04:20:16.418Z,48.90
2019-03-12T04:22:46.996Z,48.90
2019-03-12T04:25:17.566Z,48.90
2019-03-12T04:27:48.722Z,48.90
2019-03-12T04:30:20.325Z,48.90
2019-03-12T04:32:51.165Z,49.00
2019-03-12T04:35:35.305Z,49.10
2019-03-12T04:38:07.206Z,49.10
2019-03-12T04:40:37.794Z,49.10
2019-03-12T04:43:08.469Z,49.10
2019-03-12T04:45:40.526Z,49.10
2019-03-12T04:48:11.223Z,49.10
2019-03-12T04:50:41.614Z,49.10
2019-03-12T04:53:13.293Z,49.10
2019-03-12T04:55:43.764Z,49.20
2019-03-12T04:58:14.434Z,49.10
2019-03-12T05:00:44.813Z,49.10
2019-03-12T05:03:15.503Z,49.10
2019-03-12T05:05:45.995Z,49.40
2019-03-12T05:08:17.116Z,49.10
2019-03-12T05:10:47.561Z,49.10
2019-03-12T05:13:17.962Z,49.00
2019-03-12T05:15:48.801Z,49.10
2019-03-12T05:18:20.257Z,49.10
2019-03-12T05:20:51.029Z,49.30
2019-03-12T05:23:21.806Z,49.20
2019-03-12T05:25:52.633Z,49.30
2019-03-12T05:28:23.597Z,49.20
2019-03-12T05:30:54.110Z,49.20
2019-03-12T05:33:24.648Z,49.10
2019-03-12T05:35:55.418Z,49.10
2019-03-12T05:38:26.192Z,49.20
2019-03-12T05:40:56.731Z,49.20
2019-03-12T05:43:27.101Z,49.20
2019-03-12T05:45:57.819Z,49.20
2019-03-12T05:48:28.815Z,48.90
2019-03-12T05:50:59.672Z,48.70
2019-03-12T05:53:35.457Z,48.80
2019-03-12T05:56:06.158Z,48.70
2019-03-12T05:58:36.867Z,48.60
2019-03-12T06:01:07.560Z,48.70
2019-03-12T06:03:38.332Z,48.70
2019-03-12T06:06:08.695Z,48.20
2019-03-12T06:08:39.147Z,47.70
2019-03-12T06:11:09.619Z,46.90
2019-03-12T06:13:40.549Z,46.50
2019-03-12T06:16:11.184Z,46.90
2019-03-12T06:18:41.961Z,47.10
2019-03-12T06:21:12.437Z,47.10
2019-03-12T06:23:42.910Z,47.10
2019-03-12T06:26:13.845Z,47.10
2019-03-12T06:28:45.115Z,46.90
2019-03-12T06:31:17.516Z,46.90
2019-03-12T06:33:52.461Z,46.90
2019-03-12T06:36:29.949Z,46.80
2019-03-12T06:39:10.871Z,46.90
2019-03-12T06:41:45.845Z,47.10
2019-03-12T06:44:24.319Z,47.10
2019-03-12T06:47:11.755Z,47.90
2019-03-12T06:49:46.624Z,47.20
2019-03-12T06:52:37.442Z,46.60
2019-03-12T06:55:15.392Z,45.90
2019-03-12T06:58:19.943Z,45.40
2019-03-12T07:01:08.932Z,45.50
2019-03-12T07:03:57.535Z,45.60
2019-03-12T07:06:48.043Z,46.10
2019-03-12T07:09:32.198Z,46.10
2019-03-12T07:12:10.306Z,46.00
2019-03-12T07:14:45.377Z,46.30
2019-03-12T07:17:17.599Z,46.30
2019-03-12T07:19:55.560Z,46.10
2019-03-12T07:22:33.424Z,46.10
2019-03-12T07:25:08.093Z,46.00
2019-03-12T07:27:56.336Z,45.90
2019-03-12T07:30:44.960Z,45.90
2019-03-12T07:33:17.270Z,45.70
2019-03-12T07:36:05.528Z,45.70
2019-03-12T07:38:37.624Z,45.90
2019-03-12T07:41:25.084Z,45.90
2019-03-12T07:43:58.216Z,45.90
2019-03-12T07:46:45.328Z,46.10
2019-03-12T07:49:20.990Z,45.90
2019-03-12T07:52:10.032Z,45.90
2019-03-12T07:54:54.195Z,45.90
2019-03-12T07:57:26.281Z,46.10
2019-03-12T07:59:58.052Z,46.00
2019-03-12T08:02:48.348Z,46.00
2019-03-12T08:05:28.236Z,46.10
2019-03-12T08:08:00.090Z,46.10
2019-03-12T08:10:33.813Z,45.90
2019-03-12T08:13:09.113Z,45.90
2019-03-12T08:15:50.748Z,45.80
2019-03-12T08:18:28.862Z,45.80
2019-03-12T08:21:07.205Z,45.70
2019-03-12T08:23:47.959Z,45.90
2019-03-12T08:26:32.132Z,45.80
2019-03-12T08:29:20.150Z,46.00
2019-03-12T08:31:52.194Z,46.00
2019-03-12T08:34:27.348Z,45.80
2019-03-12T08:37:01.997Z,45.80
2019-03-12T08:39:34.164Z,45.80
2019-03-12T08:42:06.341Z,45.70
2019-03-12T08:44:47.361Z,45.70
2019-03-12T08:47:22.316Z,45.90
2019-03-12T08:49:54.345Z,45.70
2019-03-12T08:52:35.389Z,45.90
2019-03-12T08:55:09.491Z,45.90
2019-03-12T08:57:45.114Z,45.90
2019-03-12T09:00:32.682Z,45.70
2019-03-12T09:03:04.603Z,45.60
2019-03-12T09:05:42.613Z,45.60
2019-03-12T09:08:17.447Z,45.50
2019-03-12T09:11:01.462Z,45.50
2019-03-12T09:13:33.317Z,45.70
2019-03-12T09:16:08.200Z,45.70
2019-03-12T09:18:46.132Z,45.70
2019-03-12T09:21:24.261Z,45.80
2019-03-12T09:23:56.468Z,45.70
2019-03-12T09:26:34.570Z,45.80
2019-03-12T09:29:21.466Z,45.70
2019-03-12T09:31:56.977Z,45.50
2019-03-12T09:34:29.418Z,45.40
2019-03-12T09:37:13.757Z,45.40
2019-03-12T09:39:48.578Z,45.60
2019-03-12T09:42:35.313Z,45.50
2019-03-12T09:45:21.168Z,45.70
2019-03-12T09:48:08.500Z,45.70
2019-03-12T09:50:40.595Z,45.60
2019-03-12T09:53:25.289Z,45.50
2019-03-12T09:56:12.243Z,45.20
2019-03-12T09:58:53.364Z,45.30
2019-03-12T10:01:41.497Z,45.30
2019-03-12T10:04:19.868Z,45.30
2019-03-12T10:06:58.131Z,45.40
2019-03-12T10:09:36.093Z,45.50
2019-03-12T10:12:08.212Z,45.60
2019-03-12T10:14:52.027Z,45.50
2019-03-12T10:17:26.650Z,45.50
2019-03-12T10:19:58.897Z,45.50
2019-03-12T10:22:34.146Z,45.30
2019-03-12T10:25:06.785Z,45.20
2019-03-12T10:27:38.542Z,45.10
2019-03-12T10:30:12.489Z,45.20
2019-03-12T10:32:50.119Z,46.10
2019-03-12T10:35:31.282Z,45.40
2019-03-12T10:38:40.534Z,45.50
2019-03-12T10:41:28.505Z,45.30
2019-03-12T10:44:00.290Z,45.10
2019-03-12T10:46:35.580Z,45.00
2019-03-12T10:49:06.577Z,44.90
2019-03-12T10:51:37.229Z,45.00
2019-03-12T10:54:07.632Z,45.10
2019-03-12T10:56:38.393Z,45.10
2019-03-12T10:59:09.220Z,45.20
2019-03-12T11:01:40.151Z,45.30
2019-03-12T11:04:10.962Z,45.30
2019-03-12T11:06:41.334Z,45.20
2019-03-12T11:09:12.113Z,45.30
2019-03-12T11:11:42.577Z,45.10
2019-03-12T11:14:13.120Z,45.00
2019-03-12T11:16:43.751Z,44.90
2019-03-12T11:19:14.530Z,45.00
2019-03-12T11:21:45.109Z,45.10
2019-03-12T11:24:15.797Z,45.20
2019-03-12T11:26:46.272Z,45.20
2019-03-12T11:29:17.160Z,45.20
2019-03-12T11:31:47.529Z,45.10
2019-03-12T11:34:18.454Z,45.10
2019-03-12T11:36:49.237Z,44.90
2019-03-12T11:39:19.980Z,44.80
2019-03-12T11:41:50.988Z,44.70
2019-03-12T11:44:21.894Z,44.80
2019-03-12T11:46:52.780Z,45.00
2019-03-12T11:49:23.821Z,45.00
2019-03-12T11:51:54.646Z,45.10
2019-03-12T11:54:25.736Z,45.00
2019-03-12T11:56:56.458Z,45.10
2019-03-12T11:59:27.262Z,45.00
2019-03-12T12:01:58.012Z,44.90
2019-03-12T12:04:28.798Z,44.70
2019-03-12T12:06:59.582Z,44.60
2019-03-12T12:09:30.917Z,44.70
2019-03-12T12:12:01.808Z,44.80
2019-03-12T12:14:32.582Z,45.00
2019-03-12T12:17:03.300Z,45.00
2019-03-12T12:19:33.794Z,44.90
2019-03-12T12:22:04.653Z,44.90
2019-03-12T12:24:35.099Z,44.80
2019-03-12T12:27:05.680Z,44.60
2019-03-12T12:29:36.162Z,44.50
2019-03-12T12:32:06.865Z,44.50
2019-03-12T12:34:37.825Z,44.50
2019-03-12T12:37:08.728Z,44.70
2019-03-12T12:39:39.472Z,44.70
2019-03-12T12:42:10.435Z,44.80
2019-03-12T12:44:41.017Z,44.80
2019-03-12T12:47:11.607Z,44.80
2019-03-12T12:49:42.037Z,44.80
2019-03-12T12:52:12.535Z,44.90
2019-03-12T12:54:42.964Z,44.80
2019-03-12T12:57:13.626Z,44.80
2019-03-12T12:59:44.077Z,44.70
2019-03-12T13:02:14.853Z,44.60
2019-03-12T13:04:45.636Z,44.60
2019-03-12T13:07:16.445Z,44.50
2019-03-12T13:09:47.157Z,44.50
2019-03-12T13:12:17.593Z,44.50
2019-03-12T13:14:48.051Z,44.60
2019-03-12T13:17:18.770Z,44.50
2019-03-12T13:19:49.260Z,44.50
2019-03-12T13:22:20.242Z,44.50
2019-03-12T13:24:51.034Z,44.50
2019-03-12T13:27:21.653Z,44.40
2019-03-12T13:29:52.032Z,44.20
2019-03-12T13:32:23.068Z,44.40
2019-03-12T13:34:53.718Z,44.50
2019-03-12T13:37:24.481Z,44.60
2019-03-12T13:39:55.426Z,44.60
2019-03-12T13:42:26.346Z,44.60
2019-03-12T13:44:56.817Z,44.60
2019-03-12T13:47:28.939Z,44.60
2019-03-12T13:49:59.433Z,44.60
2019-03-12T13:52:29.964Z,44.50
2019-03-12T13:55:01.525Z,44.40
2019-03-12T13:57:32.240Z,43.60
2019-03-12T14:00:03.113Z,43.90
2019-03-12T14:02:33.796Z,44.00
2019-03-12T14:05:04.777Z,43.90
2019-03-12T14:07:35.635Z,43.80
2019-03-12T14:10:08.557Z,43.60
2019-03-12T14:12:39.010Z,43.30
2019-03-12T14:15:12.171Z,43.20
2019-03-12T14:17:42.986Z,43.00
2019-03-12T14:20:24.950Z,43.00
2019-03-12T14:22:55.493Z,42.90
2019-03-12T14:25:26.194Z,43.00
2019-03-12T14:27:56.578Z,42.90
2019-03-12T14:30:26.997Z,42.90
2019-03-12T14:32:57.749Z,42.80
2019-03-12T14:35:28.898Z,42.80
2019-03-12T14:37:59.658Z,42.60
2019-03-12T14:40:30.271Z,42.50
2019-03-12T14:43:01.462Z,42.50
2019-03-12T14:45:33.599Z,42.70
2019-03-12T14:48:04.160Z,42.20
2019-03-12T14:50:35.424Z,42.10
2019-03-12T14:53:21.903Z,42.40
2019-03-12T14:55:48.966Z,42.90
2019-03-12T14:58:19.695Z,43.40
2019-03-12T15:00:50.170Z,43.50
2019-03-12T15:03:20.655Z,43.60
2019-03-12T15:05:51.123Z,43.70
2019-03-12T15:08:21.631Z,43.70
2019-03-12T15:10:52.206Z,43.80
2019-03-12T15:13:22.937Z,43.70
2019-03-12T15:15:53.373Z,43.70
2019-03-12T15:18:24.478Z,43.80
2019-03-12T15:20:54.967Z,43.70
2019-03-12T15:23:25.318Z,43.60
2019-03-12T15:25:56.161Z,43.60
2019-03-12T15:28:26.636Z,43.60
2019-03-12T15:30:57.316Z,43.60
2019-03-12T15:33:27.790Z,43.60
2019-03-12T15:35:58.324Z,43.60
2019-03-12T15:38:29.094Z,43.60
2019-03-12T15:40:59.760Z,43.60
2019-03-12T15:43:30.332Z,43.60
2019-03-12T15:46:00.757Z,43.60
2019-03-12T15:48:31.230Z,43.60
2019-03-12T15:51:01.625Z,43.80
2019-03-12T15:53:32.097Z,43.70
2019-03-12T15:56:02.541Z,43.70
2019-03-12T15:58:32.885Z,43.80
2019-03-12T16:01:03.457Z,43.80
2019-03-12T16:03:33.869Z,43.80
2019-03-12T16:06:04.308Z,43.80
2019-03-12T16:08:34.724Z,43.80
2019-03-12T16:11:05.214Z,43.80
2019-03-12T16:13:35.680Z,43.90
2019-03-12T16:16:06.476Z,43.90
2019-03-12T16:18:36.978Z,43.90
2019-03-12T16:21:07.579Z,43.90
2019-03-12T16:23:37.988Z,44.00
2019-03-12T16:26:08.485Z,44.00
2019-03-12T16:28:39.008Z,44.20
2019-03-12T16:31:09.494Z,44.20
2019-03-12T16:33:39.884Z,44.30
2019-03-12T16:36:11.064Z,44.40
2019-03-12T16:38:41.574Z,44.40
2019-03-12T16:41:12.510Z,44.50
2019-03-12T16:43:43.063Z,44.50
2019-03-12T16:46:13.498Z,44.60
2019-03-12T16:48:43.883Z,44.70
2019-03-12T16:51:14.261Z,44.80
2019-03-12T16:53:44.801Z,44.90
2019-03-12T16:56:16.368Z,45.00
2019-03-12T16:58:47.388Z,45.10
2019-03-12T17:01:19.262Z,45.00
2019-03-12T17:03:49.628Z,45.10
2019-03-12T17:06:20.069Z,45.20
2019-03-12T17:08:52.383Z,45.90
2019-03-12T17:11:22.986Z,45.50
2019-03-12T17:13:53.332Z,45.50
2019-03-12T17:16:23.711Z,45.50
2019-03-12T17:18:54.196Z,45.60
2019-03-12T17:21:44.287Z,45.90
2019-03-12T17:24:15.312Z,46.00
2019-03-12T17:26:45.710Z,46.00
2019-03-12T17:29:16.219Z,46.10
2019-03-12T17:31:46.725Z,46.30
2019-03-12T17:34:17.157Z,46.30
2019-03-12T17:36:47.528Z,46.40
2019-03-12T17:39:18.032Z,46.30
2019-03-12T17:41:48.867Z,46.20
2019-03-12T17:44:19.404Z,46.30
2019-03-12T17:46:49.900Z,46.40
2019-03-12T17:49:21.621Z,46.50
2019-03-12T17:51:52.254Z,46.60
2019-03-12T17:54:22.730Z,46.60
2019-03-12T17:56:54.982Z,46.80
2019-03-12T17:59:25.006Z,46.70
2019-03-12T18:01:55.498Z,46.70
2019-03-12T18:04:25.871Z,46.70
2019-03-12T18:06:56.540Z,46.80
2019-03-12T18:09:27.049Z,46.90
2019-03-12T18:11:57.489Z,46.80
2019-03-12T18:14:27.814Z,46.90
2019-03-12T18:16:58.235Z,46.90
2019-03-12T18:19:28.869Z,47.10
2019-03-12T18:21:59.472Z,47.10
2019-03-12T18:24:29.836Z,47.20
2019-03-12T18:27:00.246Z,47.30
2019-03-12T18:29:30.728Z,47.50
2019-03-12T18:32:01.442Z,47.40
2019-03-12T18:34:31.891Z,47.50
2019-03-12T18:37:02.432Z,47.70
2019-03-12T18:39:32.986Z,47.70
2019-03-12T18:42:03.429Z,47.60
2019-03-12T18:44:36.205Z,47.90
2019-03-12T18:47:06.654Z,47.90
2019-03-12T18:52:13.187Z,48.00
2019-03-12T18:54:43.717Z,48.00
2019-03-12T18:57:14.165Z,48.10
2019-03-12T18:59:46.866Z,48.20
2019-03-12T19:02:19.747Z,49.40
2019-03-12T19:04:53.443Z,49.30
2019-03-12T19:07:23.807Z,49.10
2019-03-12T19:09:54.267Z,49.20
2019-03-12T19:12:24.855Z,49.30
2019-03-12T19:14:55.524Z,49.30
2019-03-12T19:17:26.160Z,49.50
2019-03-12T19:19:56.847Z,49.60
2019-03-12T19:22:27.518Z,50.10
2019-03-12T19:24:58.143Z,50.60
2019-03-12T19:27:28.589Z,50.60
2019-03-12T19:29:58.979Z,50.70
2019-03-12T19:32:33.761Z,50.90
2019-03-12T19:35:04.986Z,50.50
2019-03-12T19:37:35.449Z,50.50
2019-03-12T19:40:08.392Z,50.50
2019-03-12T19:42:40.379Z,50.40
2019-03-12T19:45:12.221Z,50.50
2019-03-12T19:47:42.746Z,50.50
2019-03-12T19:50:23.340Z,50.40
2019-03-12T19:52:53.798Z,50.30
2019-03-12T19:55:28.216Z,50.20
2019-03-12T19:57:58.979Z,50.20
2019-03-12T20:00:29.703Z,50.40
2019-03-12T20:03:10.251Z,50.30
2019-03-12T20:05:33.024Z,50.20
2019-03-12T20:08:03.620Z,50.10
2019-03-12T20:11:07.333Z,50.00
2019-03-12T20:13:58.039Z,49.90
2019-03-12T20:16:52.213Z,50.00
2019-03-12T20:19:54.094Z,50.00
2019-03-12T20:22:43.785Z,50.00
2019-03-12T20:25:37.567Z,50.00
2019-03-12T20:28:27.428Z,50.10
2019-03-12T20:31:33.210Z,49.90
2019-03-12T20:34:11.818Z,49.80
2019-03-12T20:37:17.933Z,49.80
2019-03-12T20:39:56.768Z,49.80
2019-03-12T20:42:46.349Z,49.80
2019-03-12T20:45:35.261Z,49.80
2019-03-12T20:48:22.908Z,49.60
2019-03-12T20:51:15.003Z,49.40
2019-03-12T20:54:04.067Z,49.30
2019-03-12T20:57:02.398Z,49.30
2019-03-12T21:00:09.085Z,49.30
2019-03-12T21:03:16.672Z,49.30
2019-03-12T21:05:52.273Z,49.30
2019-03-12T21:08:58.253Z,49.30
2019-03-12T21:11:47.881Z,49.30
2019-03-12T21:14:41.833Z,49.30
2019-03-12T21:17:32.977Z,49.30
2019-03-12T21:20:26.570Z,49.20
2019-03-12T21:23:14.526Z,49.10
2019-03-12T21:26:06.899Z,49.00
2019-03-12T21:29:03.611Z,49.00
2019-03-12T21:31:34.000Z,48.90
2019-03-12T21:34:04.452Z,48.80
2019-03-12T21:36:35.018Z,48.70
2019-03-12T21:39:06.753Z,48.70
2019-03-12T21:41:37.192Z,48.60
2019-03-12T21:44:07.977Z,48.50
2019-03-12T21:46:38.429Z,48.60
2019-03-12T21:49:08.863Z,48.40
2019-03-12T21:51:39.550Z,48.50
2019-03-12T21:54:10.002Z,48.60
2019-03-12T21:56:41.257Z,48.40
2019-03-12T21:59:11.618Z,48.60
2019-03-12T22:01:42.094Z,48.60
2019-03-12T22:04:12.501Z,48.70
2019-03-12T22:06:42.863Z,48.70
2019-03-12T22:09:13.321Z,48.80
2019-03-12T22:11:43.878Z,48.80
2019-03-12T22:14:14.231Z,48.90
2019-03-12T22:16:45.950Z,48.90
2019-03-12T22:19:16.556Z,49.10
2019-03-12T22:21:53.917Z,49.00
2019-03-12T22:24:28.675Z,49.10
2019-03-12T22:26:58.343Z,49.10
2019-03-12T22:29:30.367Z,49.00
2019-03-12T22:32:00.907Z,49.00
2019-03-12T22:34:31.274Z,48.90
2019-03-12T22:37:01.658Z,48.70
2019-03-12T22:39:32.091Z,48.70
2019-03-12T22:42:02.630Z,48.80
2019-03-12T22:44:32.994Z,48.90
2019-03-12T22:47:03.391Z,48.80
2019-03-12T22:49:33.862Z,48.90
2019-03-12T22:52:04.944Z,48.80
2019-03-12T22:54:35.930Z,48.60
2019-03-12T22:59:37.061Z,48.40
2019-03-12T23:02:07.518Z,48.40
2019-03-12T23:04:38.188Z,48.30
2019-03-12T23:07:08.592Z,48.00
2019-03-12T23:09:39.455Z,48.10
2019-03-12T23:12:10.238Z,48.20
2019-03-12T23:14:40.817Z,48.30
2019-03-12T23:17:11.661Z,48.50
2019-03-12T23:19:42.095Z,48.50
2019-03-12T23:22:13.019Z,48.50
2019-03-12T23:24:43.689Z,48.70
2019-03-12T23:27:14.531Z,48.80
2019-03-12T23:29:44.942Z,48.90
2019-03-12T23:32:17.482Z,48.90
2019-03-12T23:34:48.307Z,48.90
2019-03-12T23:37:18.960Z,49.00
2019-03-12T23:39:49.419Z,49.00
2019-03-12T23:42:20.007Z,49.00
2019-03-12T23:44:51.010Z,49.10
2019-03-12T23:47:21.490Z,49.10
2019-03-12T23:49:53.874Z,49.10
2019-03-12T23:52:25.306Z,49.10
2019-03-12T23:54:56.112Z,49.00
2019-03-12T23:57:27.186Z,49.00
2019-03-12T23:59:58.003Z,49.10
